createdAt,value
2017-08-27T00:00:31.880Z,64.21
2017-08-27T00:01:31.864Z,64.40
2017-08-27T00:02:31.839Z,64.59
2017-08-27T00:03:31.818Z,64.50
2017-08-27T00:04:31.800Z,64.31
2017-08-27T00:05:31.779Z,64.40
2017-08-27T00:06:31.757Z,64.50
2017-08-27T00:07:31.736Z,64.40
2017-08-27T00:08:31.717Z,64.40
2017-08-27T00:09:31.693Z,64.31
2017-08-27T00:10:31.671Z,64.50
2017-08-27T00:11:31.650Z,64.50
2017-08-27T00:12:31.630Z,64.50
2017-08-27T00:13:31.608Z,64.31
2017-08-27T00:14:31.591Z,64.89
2017-08-27T00:15:31.568Z,64.50
2017-08-27T00:16:31.542Z,64.69
2017-08-27T00:17:31.534Z,64.31
2017-08-27T00:18:31.507Z,64.89
2017-08-27T00:19:31.486Z,64.59
2017-08-27T00:20:31.464Z,64.89
2017-08-27T00:21:31.442Z,64.89
2017-08-27T00:22:31.421Z,64.40
2017-08-27T00:23:31.397Z,64.69
2017-08-27T00:24:31.375Z,64.89
2017-08-27T00:25:31.359Z,64.59
2017-08-27T00:26:31.336Z,64.50
2017-08-27T00:27:31.318Z,64.40
2017-08-27T00:28:31.294Z,64.31
2017-08-27T00:29:31.272Z,64.21
2017-08-27T00:30:31.255Z,64.21
2017-08-27T00:31:31.229Z,64.40
2017-08-27T00:32:31.208Z,64.31
2017-08-27T00:33:31.187Z,64.21
2017-08-27T00:34:31.170Z,64.31
2017-08-27T00:35:31.147Z,64.21
2017-08-27T00:36:31.124Z,64.50
2017-08-27T00:37:31.105Z,64.79
2017-08-27T00:38:31.084Z,64.69
2017-08-27T00:39:31.063Z,64.50
2017-08-27T00:40:31.041Z,64.59
2017-08-27T00:41:31.021Z,64.50
2017-08-27T00:42:30.998Z,64.50
2017-08-27T00:43:30.977Z,64.69
2017-08-27T00:44:30.959Z,64.98
2017-08-27T00:45:30.939Z,64.89
2017-08-27T00:46:30.916Z,64.79
2017-08-27T00:47:30.893Z,64.69
2017-08-27T00:48:30.880Z,64.89
2017-08-27T00:49:30.851Z,64.79
2017-08-27T00:50:30.838Z,64.89
2017-08-27T00:51:30.817Z,64.98
2017-08-27T00:52:30.793Z,64.79
2017-08-27T00:53:30.770Z,64.59
2017-08-27T00:54:30.747Z,64.98
2017-08-27T00:55:30.727Z,64.89
2017-08-27T00:56:30.706Z,64.89
2017-08-27T00:57:30.687Z,64.89
2017-08-27T00:58:30.662Z,65.17
2017-08-27T00:59:30.646Z,64.89
2017-08-27T01:00:30.620Z,64.98
2017-08-27T01:01:30.602Z,64.69
2017-08-27T01:02:30.581Z,64.69
2017-08-27T01:03:30.559Z,64.98
2017-08-27T01:04:30.538Z,64.98
2017-08-27T01:05:30.518Z,65.27
2017-08-27T01:06:30.492Z,64.89
2017-08-27T01:07:30.476Z,64.89
2017-08-27T01:08:30.452Z,64.79
2017-08-27T01:09:30.431Z,64.89
2017-08-27T01:10:30.411Z,64.89
2017-08-27T01:11:30.390Z,64.89
2017-08-27T01:12:30.370Z,64.89
2017-08-27T01:13:30.346Z,64.69
2017-08-27T01:14:30.325Z,65.08
2017-08-27T01:15:30.307Z,65.17
2017-08-27T01:16:30.287Z,65.17
2017-08-27T01:17:30.263Z,64.69
2017-08-27T01:18:30.243Z,65.08
2017-08-27T01:19:30.222Z,64.89
2017-08-27T01:20:30.199Z,64.89
2017-08-27T01:21:30.181Z,64.98
2017-08-27T01:22:30.160Z,64.69
2017-08-27T01:23:30.136Z,65.17
2017-08-27T01:24:30.142Z,64.98
2017-08-27T01:25:30.094Z,64.98
2017-08-27T01:26:30.072Z,65.08
2017-08-27T01:27:30.053Z,65.27
2017-08-27T01:28:30.033Z,64.79
2017-08-27T01:29:30.007Z,64.98
2017-08-27T01:30:29.989Z,65.08
2017-08-27T01:31:29.968Z,65.17
2017-08-27T01:32:29.943Z,64.98
2017-08-27T01:33:29.925Z,64.79
2017-08-27T01:34:29.906Z,65.08
2017-08-27T01:35:29.881Z,65.27
2017-08-27T01:36:29.862Z,64.79
2017-08-27T01:37:29.843Z,65.17
2017-08-27T01:38:29.818Z,64.79
2017-08-27T01:39:29.807Z,64.79
2017-08-27T01:40:29.779Z,64.89
2017-08-27T01:41:29.756Z,64.79
2017-08-27T01:42:29.744Z,65.17
2017-08-27T01:43:29.713Z,65.37
2017-08-27T01:44:29.693Z,65.17
2017-08-27T01:45:29.673Z,65.37
2017-08-27T01:46:29.653Z,65.37
2017-08-27T01:47:29.630Z,65.37
2017-08-27T01:48:29.610Z,65.47
2017-08-27T01:49:29.585Z,65.37
2017-08-27T01:50:29.569Z,65.37
2017-08-27T01:51:29.543Z,64.89
2017-08-27T01:52:29.526Z,64.89
2017-08-27T01:53:29.502Z,64.79
2017-08-27T01:54:29.481Z,65.27
2017-08-27T01:55:29.465Z,65.37
2017-08-27T01:56:29.441Z,65.47
2017-08-27T01:57:29.419Z,65.47
2017-08-27T01:58:29.395Z,64.79
2017-08-27T01:59:29.380Z,65.47
2017-08-27T02:00:29.364Z,65.56
2017-08-27T02:01:29.334Z,65.37
2017-08-27T02:02:29.314Z,65.17
2017-08-27T02:03:29.292Z,65.47
2017-08-27T02:04:29.269Z,65.27
2017-08-27T02:05:29.247Z,65.17
2017-08-27T02:06:29.231Z,65.17
2017-08-27T02:07:29.207Z,64.79
2017-08-27T02:08:29.189Z,64.98
2017-08-27T02:09:29.166Z,65.27
2017-08-27T02:10:29.142Z,65.37
2017-08-27T02:11:29.126Z,64.79
2017-08-27T02:12:29.101Z,65.27
2017-08-27T02:13:29.080Z,65.08
2017-08-27T02:14:29.060Z,65.37
2017-08-27T02:15:29.043Z,65.47
2017-08-27T02:16:29.017Z,65.37
2017-08-27T02:17:28.995Z,65.37
2017-08-27T02:18:28.975Z,65.27
2017-08-27T02:19:28.958Z,65.47
2017-08-27T02:20:28.931Z,65.27
2017-08-27T02:21:28.910Z,65.17
2017-08-27T02:22:28.892Z,65.27
2017-08-27T02:23:28.871Z,65.17
2017-08-27T02:24:28.850Z,65.17
2017-08-27T02:25:28.827Z,65.47
2017-08-27T02:26:28.807Z,65.17
2017-08-27T02:27:28.786Z,65.27
2017-08-27T02:28:28.764Z,65.27
2017-08-27T02:29:28.745Z,65.17
2017-08-27T02:30:28.720Z,64.89
2017-08-27T02:31:28.704Z,65.17
2017-08-27T02:32:28.719Z,65.17
2017-08-27T02:33:28.662Z,65.17
2017-08-27T02:34:28.640Z,65.27
2017-08-27T02:35:28.620Z,65.37
2017-08-27T02:36:28.595Z,65.17
2017-08-27T02:37:28.575Z,65.27
2017-08-27T02:38:28.554Z,65.27
2017-08-27T02:39:28.531Z,65.17
2017-08-27T02:40:28.511Z,65.27
2017-08-27T02:41:28.490Z,65.17
2017-08-27T02:42:28.467Z,65.17
2017-08-27T02:43:28.452Z,65.37
2017-08-27T02:44:28.423Z,65.47
2017-08-27T02:45:28.405Z,65.37
2017-08-27T02:46:28.383Z,65.17
2017-08-27T02:47:28.364Z,65.17
2017-08-27T02:48:28.341Z,65.47
2017-08-27T02:49:28.319Z,65.27
2017-08-27T02:50:28.299Z,65.47
2017-08-27T02:51:28.278Z,65.17
2017-08-27T02:52:28.256Z,65.37
2017-08-27T02:53:28.236Z,65.37
2017-08-27T02:54:28.218Z,65.27
2017-08-27T02:55:28.195Z,65.27
2017-08-27T02:56:28.174Z,64.89
2017-08-27T02:57:28.149Z,65.27
2017-08-27T02:58:28.133Z,65.37
2017-08-27T02:59:28.111Z,65.08
2017-08-27T03:00:28.085Z,65.56
2017-08-27T03:01:28.067Z,65.17
2017-08-27T03:02:28.047Z,65.17
2017-08-27T03:03:28.025Z,65.17
2017-08-27T03:04:28.006Z,65.37
2017-08-27T03:05:27.980Z,65.17
2017-08-27T03:06:27.960Z,65.47
2017-08-27T03:07:27.939Z,65.47
2017-08-27T03:08:27.918Z,65.56
2017-08-27T03:09:27.898Z,65.47
2017-08-27T03:10:27.877Z,65.37
2017-08-27T03:11:27.858Z,65.37
2017-08-27T03:12:27.833Z,65.37
2017-08-27T03:13:27.815Z,65.47
2017-08-27T03:14:27.793Z,65.27
2017-08-27T03:15:27.777Z,65.37
2017-08-27T03:16:27.752Z,65.27
2017-08-27T03:17:27.726Z,65.37
2017-08-27T03:18:27.706Z,65.27
2017-08-27T03:19:27.683Z,65.27
2017-08-27T03:20:27.666Z,65.56
2017-08-27T03:21:27.644Z,65.37
2017-08-27T03:22:27.623Z,65.47
2017-08-27T03:23:27.602Z,65.47
2017-08-27T03:24:27.580Z,65.47
2017-08-27T03:25:27.562Z,65.66
2017-08-27T03:26:27.538Z,65.17
2017-08-27T03:27:27.518Z,65.47
2017-08-27T03:28:27.498Z,65.17
2017-08-27T03:29:27.474Z,65.66
2017-08-27T03:30:27.455Z,65.37
2017-08-27T03:31:27.436Z,65.37
2017-08-27T03:32:27.409Z,65.37
2017-08-27T03:33:27.393Z,65.37
2017-08-27T03:34:27.368Z,65.47
2017-08-27T03:35:27.349Z,65.37
2017-08-27T03:36:27.329Z,65.85
2017-08-27T03:37:27.305Z,65.85
2017-08-27T03:38:27.283Z,65.27
2017-08-27T03:39:27.261Z,65.27
2017-08-27T03:40:27.244Z,65.37
2017-08-27T03:41:27.219Z,65.37
2017-08-27T03:42:27.203Z,65.66
2017-08-27T03:43:27.179Z,65.85
2017-08-27T03:44:27.158Z,65.56
2017-08-27T03:45:27.138Z,66.05
2017-08-27T03:46:27.112Z,65.75
2017-08-27T03:47:27.095Z,65.47
2017-08-27T03:48:27.071Z,65.37
2017-08-27T03:49:27.049Z,65.27
2017-08-27T03:50:27.031Z,65.95
2017-08-27T03:51:27.011Z,65.27
2017-08-27T03:52:26.991Z,65.75
2017-08-27T03:53:26.969Z,65.56
2017-08-27T03:54:26.946Z,65.37
2017-08-27T03:55:26.923Z,65.56
2017-08-27T03:56:26.905Z,65.85
2017-08-27T03:57:26.884Z,65.47
2017-08-27T03:58:26.859Z,66.63
2017-08-27T03:59:26.839Z,65.95
2017-08-27T04:00:26.817Z,65.75
2017-08-27T04:01:26.797Z,65.66
2017-08-27T04:02:26.776Z,65.56
2017-08-27T04:03:26.756Z,65.95
2017-08-27T04:04:26.737Z,65.66
2017-08-27T04:05:26.713Z,65.85
2017-08-27T04:06:26.691Z,65.85
2017-08-27T04:07:26.674Z,65.95
2017-08-27T04:08:26.648Z,65.85
2017-08-27T04:09:26.628Z,65.95
2017-08-27T04:10:26.611Z,66.05
2017-08-27T04:11:26.587Z,66.05
2017-08-27T04:12:26.563Z,65.85
2017-08-27T04:13:26.541Z,65.47
2017-08-27T04:14:26.523Z,65.75
2017-08-27T04:15:26.500Z,65.17
2017-08-27T04:16:26.479Z,65.66
2017-08-27T04:17:26.462Z,66.33
2017-08-27T04:18:26.438Z,66.63
2017-08-27T04:19:26.418Z,66.91
2017-08-27T04:20:26.396Z,67.40
2017-08-27T04:21:26.380Z,66.33
2017-08-27T04:22:26.356Z,65.95
2017-08-27T04:23:26.331Z,65.47
2017-08-27T04:24:26.309Z,65.95
2017-08-27T04:25:26.292Z,65.66
2017-08-27T04:26:26.272Z,65.95
2017-08-27T04:27:26.248Z,66.24
2017-08-27T04:28:26.225Z,66.53
2017-08-27T04:29:26.213Z,65.95
2017-08-27T04:30:26.187Z,65.85
2017-08-27T04:31:26.164Z,65.75
2017-08-27T04:32:26.141Z,65.85
2017-08-27T04:33:26.121Z,65.95
2017-08-27T04:34:26.098Z,65.75
2017-08-27T04:35:26.082Z,65.95
2017-08-27T04:36:26.057Z,65.95
2017-08-27T04:37:26.039Z,66.43
2017-08-27T04:38:26.014Z,65.95
2017-08-27T04:39:25.991Z,65.85
2017-08-27T04:40:25.974Z,65.95
2017-08-27T04:41:25.954Z,66.24
2017-08-27T04:42:25.928Z,66.63
2017-08-27T04:43:25.915Z,66.53
2017-08-27T04:44:25.890Z,66.43
2017-08-27T04:45:25.867Z,66.24
2017-08-27T04:46:25.843Z,65.85
2017-08-27T04:47:25.825Z,65.75
2017-08-27T04:48:25.805Z,66.05
2017-08-27T04:49:25.785Z,65.85
2017-08-27T04:50:25.765Z,65.66
2017-08-27T04:51:25.737Z,65.95
2017-08-27T04:52:25.717Z,65.95
2017-08-27T04:53:25.696Z,65.95
2017-08-27T04:54:25.679Z,65.95
2017-08-27T04:55:25.658Z,65.56
2017-08-27T04:56:25.634Z,66.43
2017-08-27T04:57:25.615Z,65.85
2017-08-27T04:58:25.591Z,65.95
2017-08-27T04:59:25.581Z,66.33
2017-08-27T05:00:25.548Z,66.53
2017-08-27T05:01:25.530Z,66.24
2017-08-27T05:02:25.505Z,65.95
2017-08-27T05:03:25.498Z,65.56
2017-08-27T05:04:25.474Z,65.95
2017-08-27T05:05:25.446Z,66.14
2017-08-27T05:06:25.431Z,65.85
2017-08-27T05:07:25.402Z,65.85
2017-08-27T05:08:25.381Z,66.33
2017-08-27T05:09:25.359Z,67.01
2017-08-27T05:10:25.337Z,66.82
2017-08-27T05:11:25.317Z,66.24
2017-08-27T05:12:25.297Z,66.24
2017-08-27T05:13:25.272Z,66.43
2017-08-27T05:14:25.250Z,66.43
2017-08-27T05:15:25.233Z,66.53
2017-08-27T05:16:25.208Z,66.05
2017-08-27T05:17:25.185Z,66.33
2017-08-27T05:18:25.170Z,65.56
2017-08-27T05:19:25.150Z,65.47
2017-08-27T05:20:25.131Z,65.95
2017-08-27T05:21:25.107Z,66.43
2017-08-27T05:22:25.083Z,65.66
2017-08-27T05:23:25.069Z,65.56
2017-08-27T05:24:25.040Z,65.95
2017-08-27T05:25:25.022Z,66.24
2017-08-27T05:26:25.010Z,66.43
2017-08-27T05:27:24.978Z,66.43
2017-08-27T05:28:24.955Z,66.63
2017-08-27T05:29:24.937Z,66.43
2017-08-27T05:30:24.915Z,66.53
2017-08-27T05:31:24.891Z,66.43
2017-08-27T05:32:24.868Z,66.33
2017-08-27T05:33:24.860Z,66.53
2017-08-27T05:34:24.829Z,66.72
2017-08-27T05:35:24.809Z,67.11
2017-08-27T05:36:24.787Z,66.53
2017-08-27T05:37:24.766Z,66.53
2017-08-27T05:38:24.744Z,66.53
2017-08-27T05:39:24.726Z,66.53
2017-08-27T05:40:24.701Z,67.11
2017-08-27T05:41:24.681Z,66.72
2017-08-27T05:42:24.660Z,67.01
2017-08-27T05:43:24.641Z,66.72
2017-08-27T05:44:24.616Z,66.33
2017-08-27T05:45:24.596Z,66.72
2017-08-27T05:46:24.577Z,66.24
2017-08-27T05:47:24.551Z,66.33
2017-08-27T05:48:24.530Z,66.72
2017-08-27T05:49:24.508Z,67.01
2017-08-27T05:50:24.490Z,66.53
2017-08-27T05:51:24.471Z,66.24
2017-08-27T05:52:24.445Z,66.63
2017-08-27T05:53:24.428Z,66.53
2017-08-27T05:54:24.407Z,66.63
2017-08-27T05:55:24.384Z,66.91
2017-08-27T05:56:24.366Z,66.72
2017-08-27T05:57:24.343Z,66.24
2017-08-27T05:58:24.322Z,66.53
2017-08-27T05:59:24.297Z,66.53
2017-08-27T06:00:24.280Z,66.33
2017-08-27T06:01:24.254Z,65.95
2017-08-27T06:02:24.236Z,66.24
2017-08-27T06:03:24.212Z,66.14
2017-08-27T06:04:24.194Z,66.53
2017-08-27T06:05:24.169Z,66.53
2017-08-27T06:06:24.152Z,66.72
2017-08-27T06:07:24.131Z,66.53
2017-08-27T06:08:24.107Z,66.24
2017-08-27T06:09:24.085Z,66.63
2017-08-27T06:10:24.065Z,66.24
2017-08-27T06:11:24.047Z,66.33
2017-08-27T06:12:24.024Z,66.53
2017-08-27T06:13:24.004Z,66.24
2017-08-27T06:14:23.983Z,65.95
2017-08-27T06:15:23.958Z,65.66
2017-08-27T06:16:23.944Z,65.95
2017-08-27T06:17:23.918Z,65.95
2017-08-27T06:18:23.904Z,65.75
2017-08-27T06:19:23.872Z,65.95
2017-08-27T06:20:23.849Z,66.43
2017-08-27T06:21:23.834Z,66.33
2017-08-27T06:22:23.810Z,65.75
2017-08-27T06:23:23.789Z,65.95
2017-08-27T06:24:23.766Z,65.56
2017-08-27T06:25:23.744Z,66.14
2017-08-27T06:26:23.728Z,65.95
2017-08-27T06:27:23.702Z,65.66
2017-08-27T06:28:23.680Z,65.95
2017-08-27T06:29:23.662Z,66.24
2017-08-27T06:30:23.641Z,66.33
2017-08-27T06:31:23.622Z,65.95
2017-08-27T06:32:23.600Z,66.05
2017-08-27T06:33:23.577Z,65.75
2017-08-27T06:34:23.559Z,65.75
2017-08-27T06:35:23.532Z,65.75
2017-08-27T06:36:23.515Z,65.66
2017-08-27T06:37:23.490Z,65.75
2017-08-27T06:38:23.474Z,66.14
2017-08-27T06:39:23.450Z,66.14
2017-08-27T06:40:23.428Z,65.75
2017-08-27T06:41:23.429Z,65.66
2017-08-27T06:42:23.386Z,65.75
2017-08-27T06:43:23.365Z,66.05
2017-08-27T06:44:23.343Z,65.66
2017-08-27T06:45:23.322Z,65.66
2017-08-27T06:46:23.300Z,65.66
2017-08-27T06:47:23.280Z,65.66
2017-08-27T06:48:23.256Z,66.05
2017-08-27T06:49:23.240Z,65.95
2017-08-27T06:50:23.214Z,65.75
2017-08-27T06:51:23.198Z,65.95
2017-08-27T06:52:23.173Z,65.85
2017-08-27T06:53:23.154Z,65.75
2017-08-27T06:54:23.131Z,65.75
2017-08-27T06:55:23.110Z,65.66
2017-08-27T06:56:23.089Z,65.56
2017-08-27T06:57:23.065Z,65.17
2017-08-27T06:58:23.044Z,65.17
2017-08-27T06:59:23.028Z,64.98
2017-08-27T07:00:23.002Z,64.79
2017-08-27T07:01:22.985Z,64.89
2017-08-27T07:02:22.961Z,65.27
2017-08-27T07:03:22.942Z,65.27
2017-08-27T07:04:22.921Z,65.27
2017-08-27T07:05:22.897Z,65.27
2017-08-27T07:06:22.876Z,65.17
2017-08-27T07:07:22.858Z,65.47
2017-08-27T07:08:22.836Z,65.27
2017-08-27T07:09:22.810Z,65.56
2017-08-27T07:10:22.791Z,65.47
2017-08-27T07:11:22.769Z,65.17
2017-08-27T07:12:22.747Z,65.37
2017-08-27T07:13:22.725Z,65.17
2017-08-27T07:14:22.706Z,65.27
2017-08-27T07:15:22.689Z,64.31
2017-08-27T07:16:22.664Z,64.40
2017-08-27T07:17:22.647Z,64.95
2017-08-27T07:18:22.625Z,64.89
2017-08-27T07:19:22.601Z,64.89
2017-08-27T07:20:22.580Z,65.17
2017-08-27T07:21:22.559Z,65.37
2017-08-27T07:22:22.537Z,64.89
2017-08-27T07:23:22.515Z,64.89
2017-08-27T07:24:22.494Z,65.47
2017-08-27T07:25:22.472Z,65.08
2017-08-27T07:26:22.456Z,64.98
2017-08-27T07:27:22.431Z,65.17
2017-08-27T07:28:22.410Z,64.69
2017-08-27T07:29:22.389Z,64.98
2017-08-27T07:30:22.367Z,64.79
2017-08-27T07:31:22.355Z,65.17
2017-08-27T07:32:22.326Z,65.47
2017-08-27T07:33:22.304Z,65.17
2017-08-27T07:34:22.284Z,64.89
2017-08-27T07:35:22.266Z,65.27
2017-08-27T07:36:22.244Z,64.79
2017-08-27T07:37:22.225Z,64.69
2017-08-27T07:38:22.200Z,64.59
2017-08-27T07:39:22.183Z,64.50
2017-08-27T07:40:22.157Z,64.59
2017-08-27T07:41:22.136Z,64.69
2017-08-27T07:42:22.119Z,64.50
2017-08-27T07:43:22.096Z,64.59
2017-08-27T07:44:22.074Z,64.89
2017-08-27T07:45:22.051Z,64.50
2017-08-27T07:46:22.033Z,64.34
2017-08-27T07:47:22.011Z,64.31
2017-08-27T07:48:21.990Z,64.31
2017-08-27T07:49:21.972Z,64.50
2017-08-27T07:50:21.947Z,64.69
2017-08-27T07:51:21.927Z,64.79
2017-08-27T07:52:21.908Z,64.89
2017-08-27T07:53:21.882Z,64.59
2017-08-27T07:54:21.865Z,64.79
2017-08-27T07:55:21.844Z,64.59
2017-08-27T07:56:21.820Z,64.59
2017-08-27T07:57:21.803Z,64.59
2017-08-27T07:58:21.781Z,64.72
2017-08-27T07:59:21.762Z,64.50
2017-08-27T08:00:21.740Z,64.31
2017-08-27T08:01:21.715Z,64.24
2017-08-27T08:02:21.694Z,64.50
2017-08-27T08:03:21.673Z,64.34
2017-08-27T08:04:21.651Z,64.31
2017-08-27T08:05:21.632Z,64.14
2017-08-27T08:06:21.609Z,64.40
2017-08-27T08:07:21.593Z,64.40
2017-08-27T08:08:21.569Z,64.40
2017-08-27T08:09:21.550Z,64.31
2017-08-27T08:10:21.525Z,64.40
2017-08-27T08:11:21.512Z,64.43
2017-08-27T08:12:21.484Z,64.31
2017-08-27T08:13:21.465Z,64.34
2017-08-27T08:14:21.441Z,64.40
2017-08-27T08:15:21.423Z,64.34
2017-08-27T08:16:21.404Z,64.24
2017-08-27T08:17:21.381Z,64.11
2017-08-27T08:18:21.361Z,64.43
2017-08-27T08:19:21.341Z,64.24
2017-08-27T08:20:21.316Z,64.40
2017-08-27T08:21:21.295Z,64.40
2017-08-27T08:22:21.276Z,64.43
2017-08-27T08:23:21.252Z,63.95
2017-08-27T08:24:21.231Z,63.82
2017-08-27T08:25:21.213Z,64.05
2017-08-27T08:26:21.191Z,64.43
2017-08-27T08:27:21.169Z,64.43
2017-08-27T08:28:21.148Z,64.24
2017-08-27T08:29:21.130Z,64.21
2017-08-27T08:30:21.109Z,64.21
2017-08-27T08:31:21.090Z,64.01
2017-08-27T08:32:21.064Z,63.66
2017-08-27T08:33:21.045Z,63.95
2017-08-27T08:34:21.036Z,64.31
2017-08-27T08:35:21.004Z,63.47
2017-08-27T08:36:20.981Z,63.43
2017-08-27T08:37:20.956Z,63.34
2017-08-27T08:38:20.939Z,63.92
2017-08-27T08:39:20.926Z,63.34
2017-08-27T08:40:20.896Z,63.92
2017-08-27T08:41:20.873Z,63.73
2017-08-27T08:42:20.856Z,63.53
2017-08-27T08:43:20.833Z,63.24
2017-08-27T08:44:20.809Z,63.15
2017-08-27T08:45:20.791Z,63.15
2017-08-27T08:46:20.769Z,63.15
2017-08-27T08:47:20.750Z,63.34
2017-08-27T08:48:20.730Z,63.43
2017-08-27T08:49:20.704Z,63.34
2017-08-27T08:50:20.689Z,63.34
2017-08-27T08:51:20.668Z,63.34
2017-08-27T08:52:20.641Z,63.24
2017-08-27T08:53:20.620Z,62.95
2017-08-27T08:54:20.602Z,63.24
2017-08-27T08:55:20.576Z,63.53
2017-08-27T08:56:20.556Z,63.24
2017-08-27T08:57:20.533Z,63.15
2017-08-27T08:58:20.517Z,63.34
2017-08-27T08:59:20.493Z,63.15
2017-08-27T09:00:20.469Z,63.15
2017-08-27T09:01:20.451Z,62.76
2017-08-27T09:02:20.429Z,62.28
2017-08-27T09:03:20.409Z,62.18
2017-08-27T09:04:20.386Z,62.08
2017-08-27T09:05:20.366Z,62.05
2017-08-27T09:06:20.345Z,62.08
2017-08-27T09:07:20.323Z,62.15
2017-08-27T09:08:20.300Z,62.28
2017-08-27T09:09:20.280Z,62.05
2017-08-27T09:10:20.263Z,62.18
2017-08-27T09:11:20.238Z,61.77
2017-08-27T09:12:20.214Z,61.99
2017-08-27T09:13:20.198Z,62.18
2017-08-27T09:14:20.176Z,61.41
2017-08-27T09:15:20.154Z,61.70
2017-08-27T09:16:20.133Z,60.83
2017-08-27T09:17:20.111Z,60.93
2017-08-27T09:18:20.090Z,61.02
2017-08-27T09:19:20.070Z,60.13
2017-08-27T09:20:20.048Z,60.93
2017-08-27T09:21:20.032Z,60.51
2017-08-27T09:22:20.004Z,60.13
2017-08-27T09:23:19.987Z,60.51
2017-08-27T09:24:19.962Z,60.71
2017-08-27T09:25:19.943Z,60.61
2017-08-27T09:26:19.922Z,60.54
2017-08-27T09:27:19.902Z,60.93
2017-08-27T09:28:19.879Z,60.54
2017-08-27T09:29:19.857Z,60.35
2017-08-27T09:30:19.837Z,60.06
2017-08-27T09:31:19.817Z,59.67
2017-08-27T09:32:19.791Z,60.06
2017-08-27T09:33:19.772Z,58.80
2017-08-27T09:34:19.750Z,58.90
2017-08-27T09:35:19.730Z,59.09
2017-08-27T09:36:19.708Z,59.09
2017-08-27T09:37:19.685Z,58.80
2017-08-27T09:38:19.665Z,59.09
2017-08-27T09:39:19.647Z,59.28
2017-08-27T09:40:19.620Z,59.09
2017-08-27T09:41:19.604Z,58.80
2017-08-27T09:42:19.583Z,58.80
2017-08-27T09:43:19.564Z,58.90
2017-08-27T09:44:19.536Z,59.00
2017-08-27T09:45:19.519Z,58.90
2017-08-27T09:46:19.496Z,59.48
2017-08-27T09:47:19.474Z,60.25
2017-08-27T09:48:19.452Z,60.44
2017-08-27T09:49:19.429Z,60.16
2017-08-27T09:50:19.409Z,60.06
2017-08-27T09:51:19.390Z,60.16
2017-08-27T09:52:19.366Z,60.06
2017-08-27T09:53:19.346Z,59.86
2017-08-27T09:54:19.328Z,60.44
2017-08-27T09:55:19.302Z,60.44
2017-08-27T09:56:19.282Z,60.44
2017-08-27T09:57:19.261Z,60.09
2017-08-27T09:58:19.239Z,60.28
2017-08-27T09:59:19.217Z,60.44
2017-08-27T10:00:19.196Z,60.64
2017-08-27T10:01:19.175Z,60.86
2017-08-27T10:02:19.155Z,60.67
2017-08-27T10:03:19.139Z,61.15
2017-08-27T10:04:19.115Z,60.57
2017-08-27T10:05:19.100Z,61.15
2017-08-27T10:06:19.075Z,61.05
2017-08-27T10:07:19.050Z,60.96
2017-08-27T10:08:19.029Z,61.15
2017-08-27T10:09:19.010Z,61.15
2017-08-27T10:10:18.990Z,61.05
2017-08-27T10:11:18.965Z,61.34
2017-08-27T10:12:18.948Z,61.54
2017-08-27T10:13:18.922Z,61.83
2017-08-27T10:14:18.901Z,62.02
2017-08-27T10:15:18.881Z,62.02
2017-08-27T10:16:18.863Z,62.21
2017-08-27T10:17:18.843Z,62.21
2017-08-27T10:18:18.819Z,62.21
2017-08-27T10:19:18.796Z,62.02
2017-08-27T10:20:18.776Z,62.31
2017-08-27T10:21:18.761Z,62.40
2017-08-27T10:22:18.738Z,62.98
2017-08-27T10:23:18.716Z,62.31
2017-08-27T10:24:18.695Z,62.60
2017-08-27T10:25:18.676Z,62.12
2017-08-27T10:26:18.651Z,62.40
2017-08-27T10:27:18.633Z,62.12
2017-08-27T10:28:18.612Z,62.40
2017-08-27T10:29:18.593Z,62.12
2017-08-27T10:30:18.568Z,62.50
2017-08-27T10:31:18.548Z,62.89
2017-08-27T10:32:18.527Z,62.60
2017-08-27T10:33:18.510Z,62.70
2017-08-27T10:34:18.486Z,62.50
2017-08-27T10:35:18.465Z,62.79
2017-08-27T10:36:18.443Z,62.60
2017-08-27T10:37:18.424Z,62.31
2017-08-27T10:38:18.403Z,62.89
2017-08-27T10:39:18.385Z,62.89
2017-08-27T10:40:18.362Z,62.79
2017-08-27T10:41:18.339Z,62.21
2017-08-27T10:42:18.324Z,62.60
2017-08-27T10:43:18.314Z,62.70
2017-08-27T10:44:18.282Z,62.79
2017-08-27T10:45:18.256Z,62.98
2017-08-27T10:46:18.240Z,62.98
2017-08-27T10:47:18.219Z,62.89
2017-08-27T10:48:18.198Z,62.98
2017-08-27T10:49:18.176Z,62.89
2017-08-27T10:50:18.154Z,62.79
2017-08-27T10:51:18.134Z,63.08
2017-08-27T10:52:18.111Z,63.08
2017-08-27T10:53:18.095Z,62.79
2017-08-27T10:54:18.071Z,62.89
2017-08-27T10:55:18.049Z,62.31
2017-08-27T10:56:18.030Z,62.60
2017-08-27T10:57:18.012Z,62.40
2017-08-27T10:58:17.989Z,62.79
2017-08-27T10:59:17.968Z,62.79
2017-08-27T11:00:17.947Z,62.79
2017-08-27T11:01:17.927Z,62.89
2017-08-27T11:02:17.904Z,62.89
2017-08-27T11:03:17.888Z,62.79
2017-08-27T11:04:17.866Z,62.89
2017-08-27T11:05:17.844Z,62.70
2017-08-27T11:06:17.822Z,62.79
2017-08-27T11:07:17.803Z,63.18
2017-08-27T11:08:17.784Z,62.89
2017-08-27T11:09:17.759Z,62.98
2017-08-27T11:10:17.741Z,62.89
2017-08-27T11:11:17.721Z,62.98
2017-08-27T11:12:17.701Z,62.98
2017-08-27T11:13:17.679Z,62.89
2017-08-27T11:14:17.655Z,63.08
2017-08-27T11:15:17.638Z,63.37
2017-08-27T11:16:17.619Z,63.28
2017-08-27T11:17:17.593Z,62.98
2017-08-27T11:18:17.577Z,63.28
2017-08-27T11:19:17.554Z,62.98
2017-08-27T11:20:17.532Z,62.89
2017-08-27T11:21:17.514Z,63.28
2017-08-27T11:22:17.490Z,63.08
2017-08-27T11:23:17.468Z,63.28
2017-08-27T11:24:17.447Z,62.89
2017-08-27T11:25:17.429Z,63.08
2017-08-27T11:26:17.409Z,62.98
2017-08-27T11:27:17.385Z,62.79
2017-08-27T11:28:17.369Z,62.79
2017-08-27T11:29:17.346Z,62.98
2017-08-27T11:30:17.326Z,63.08
2017-08-27T11:31:17.305Z,62.98
2017-08-27T11:32:17.283Z,63.08
2017-08-27T11:33:17.261Z,62.98
2017-08-27T11:34:17.243Z,62.98
2017-08-27T11:35:17.225Z,62.98
2017-08-27T11:36:17.253Z,63.08
2017-08-27T11:37:17.181Z,63.08
2017-08-27T11:38:17.160Z,62.98
2017-08-27T11:39:17.141Z,63.08
2017-08-27T11:40:17.119Z,63.08
2017-08-27T11:41:17.100Z,63.18
2017-08-27T11:42:17.076Z,63.18
2017-08-27T11:43:17.059Z,63.28
2017-08-27T11:44:17.033Z,62.89
2017-08-27T11:45:17.018Z,63.28
2017-08-27T11:46:16.994Z,63.37
2017-08-27T11:47:16.975Z,63.28
2017-08-27T11:48:16.955Z,63.18
2017-08-27T11:49:16.932Z,63.28
2017-08-27T11:50:16.914Z,63.18
2017-08-27T11:51:16.891Z,62.79
2017-08-27T11:52:16.869Z,63.18
2017-08-27T11:53:16.852Z,63.28
2017-08-27T11:54:16.829Z,63.56
2017-08-27T11:55:16.809Z,63.28
2017-08-27T11:56:16.789Z,63.18
2017-08-27T11:57:16.769Z,63.47
2017-08-27T11:58:16.746Z,63.28
2017-08-27T11:59:16.723Z,63.56
2017-08-27T12:00:16.706Z,63.76
2017-08-27T12:01:16.685Z,63.28
2017-08-27T12:02:16.661Z,63.18
2017-08-27T12:03:16.640Z,63.28
2017-08-27T12:04:16.621Z,63.37
2017-08-27T12:05:16.603Z,63.37
2017-08-27T12:06:16.578Z,63.28
2017-08-27T12:07:16.559Z,63.18
2017-08-27T12:08:16.537Z,63.37
2017-08-27T12:09:16.521Z,63.08
2017-08-27T12:10:16.496Z,63.37
2017-08-27T12:11:16.477Z,63.56
2017-08-27T12:12:16.457Z,63.11
2017-08-27T12:13:16.433Z,63.11
2017-08-27T12:14:16.414Z,63.31
2017-08-27T12:15:16.393Z,62.98
2017-08-27T12:16:16.422Z,63.40
2017-08-27T12:17:16.349Z,62.98
2017-08-27T12:18:16.328Z,62.34
2017-08-27T12:19:16.310Z,62.82
2017-08-27T12:20:16.288Z,63.02
2017-08-27T12:21:16.268Z,62.15
2017-08-27T12:22:16.245Z,62.24
2017-08-27T12:23:16.226Z,61.47
2017-08-27T12:24:16.206Z,61.47
2017-08-27T12:25:16.182Z,58.15
2017-08-27T12:26:16.164Z,57.67
2017-08-27T12:27:16.143Z,58.25
2017-08-27T12:28:16.121Z,59.12
2017-08-27T12:29:16.103Z,57.29
2017-08-27T12:30:16.080Z,57.09
2017-08-27T12:31:16.059Z,56.61
2017-08-27T12:32:16.033Z,56.99
2017-08-27T12:33:16.018Z,56.22
2017-08-27T12:34:15.995Z,55.83
2017-08-27T12:35:15.975Z,56.99
2017-08-27T12:36:15.949Z,56.41
2017-08-27T12:37:15.928Z,57.19
2017-08-27T12:38:15.907Z,56.32
2017-08-27T12:39:15.891Z,56.61
2017-08-27T12:40:15.869Z,57.77
2017-08-27T12:41:15.849Z,57.77
2017-08-27T12:42:15.823Z,57.67
2017-08-27T12:43:15.807Z,57.96
2017-08-27T12:44:15.781Z,58.64
2017-08-27T12:45:15.761Z,59.31
2017-08-27T12:46:15.740Z,59.22
2017-08-27T12:47:15.723Z,60.09
2017-08-27T12:48:15.698Z,59.70
2017-08-27T12:49:15.680Z,60.09
2017-08-27T12:50:15.663Z,59.89
2017-08-27T12:51:15.642Z,60.18
2017-08-27T12:52:15.615Z,60.47